sensor_id;sensor_type;location;lat;lon;timestamp;temperature;humidity
17859;DHT22;35426;30.698;104.050;2022-08-21T00:00:04;38.70;99.90
17859;DHT22;35426;30.698;104.050;2022-08-21T00:02:46;38.90;99.90
17859;DHT22;35426;30.698;104.050;2022-08-21T00:05:28;39.50;99.90
17859;DHT22;35426;30.698;104.050;2022-08-21T00:08:03;40.10;99.90
17859;DHT22;35426;30.698;104.050;2022-08-21T00:10:37;40.30;99.90
17859;DHT22;35426;30.698;104.050;2022-08-21T00:13:12;40.50;99.90
17859;DHT22;35426;30.698;104.050;2022-08-21T00:15:48;40.90;99.90
17859;DHT22;35426;30.698;104.050;2022-08-21T00:18:24;41.10;99.90
17859;DHT22;35426;30.698;104.050;2022-08-21T00:21:00;41.20;99.90
17859;DHT22;35426;30.698;104.050;2022-08-21T00:23:35;41.10;99.90
17859;DHT22;35426;30.698;104.050;2022-08-21T00:26:09;41.30;99.90
17859;DHT22;35426;30.698;104.050;2022-08-21T00:28:43;41.70;99.90
17859;DHT22;35426;30.698;104.050;2022-08-21T00:31:20;42.10;99.90
17859;DHT22;35426;30.698;104.050;2022-08-21T00:33:54;42.10;99.90
17859;DHT22;35426;30.698;104.050;2022-08-21T00:36:31;42.30;99.90
17859;DHT22;35426;30.698;104.050;2022-08-21T00:39:06;42.50;99.90
17859;DHT22;35426;30.698;104.050;2022-08-21T00:41:41;42.50;99.90
17859;DHT22;35426;30.698;104.050;2022-08-21T00:44:16;42.60;99.90
17859;DHT22;35426;30.698;104.050;2022-08-21T00:46:50;42.70;99.90
17859;DHT22;35426;30.698;104.050;2022-08-21T00:49:23;42.80;99.90
17859;DHT22;35426;30.698;104.050;2022-08-21T00:52:01;42.50;99.90
17859;DHT22;35426;30.698;104.050;2022-08-21T00:54:41;42.10;99.90
17859;DHT22;35426;30.698;104.050;2022-08-21T00:57:18;42.20;99.90
17859;DHT22;35426;30.698;104.050;2022-08-21T01:00:17;42.20;99.90
17859;DHT22;35426;30.698;104.050;2022-08-21T01:02:52;41.90;99.90
17859;DHT22;35426;30.698;104.050;2022-08-21T01:05:27;41.70;99.90
17859;DHT22;35426;30.698;104.050;2022-08-21T01:08:04;41.70;99.90
17859;DHT22;35426;30.698;104.050;2022-08-21T01:10:40;41.60;99.90
17859;DHT22;35426;30.698;104.050;2022-08-21T01:13:16;41.50;99.90
17859;DHT22;35426;30.698;104.050;2022-08-21T01:16:05;41.20;99.90
17859;DHT22;35426;30.698;104.050;2022-08-21T01:18:50;41.30;99.90
17859;DHT22;35426;30.698;104.050;2022-08-21T01:21:46;42.10;99.90
17859;DHT22;35426;30.698;104.050;2022-08-21T01:24:21;42.70;99.90
17859;DHT22;35426;30.698;104.050;2022-08-21T01:26:55;42.90;99.90
17859;DHT22;35426;30.698;104.050;2022-08-21T01:29:34;42.50;99.90
17859;DHT22;35426;30.698;104.050;2022-08-21T01:32:14;42.90;99.90
17859;DHT22;35426;30.698;104.050;2022-08-21T01:34:51;42.30;99.90
17859;DHT22;35426;30.698;104.050;2022-08-21T01:37:27;43.10;99.90
17859;DHT22;35426;30.698;104.050;2022-08-21T01:40:15;43.50;99.90
17859;DHT22;35426;30.698;104.050;2022-08-21T01:42:50;44.00;99.90
17859;DHT22;35426;30.698;104.050;2022-08-21T01:45:25;44.30;99.90
17859;DHT22;35426;30.698;104.050;2022-08-21T01:47:59;43.90;99.90
17859;DHT22;35426;30.698;104.050;2022-08-21T01:50:33;43.30;99.90
17859;DHT22;35426;30.698;104.050;2022-08-21T01:53:09;43.50;99.90
17859;DHT22;35426;30.698;104.050;2022-08-21T01:55:44;43.00;99.90
17859;DHT22;35426;30.698;104.050;2022-08-21T01:58:19;42.60;99.90
17859;DHT22;35426;30.698;104.050;2022-08-21T02:00:53;42.60;99.90
17859;DHT22;35426;30.698;104.050;2022-08-21T02:03:29;42.30;99.90
17859;DHT22;35426;30.698;104.050;2022-08-21T02:06:05;42.10;99.90
17859;DHT22;35426;30.698;104.050;2022-08-21T02:08:41;42.20;99.90
17859;DHT22;35426;30.698;104.050;2022-08-21T02:11:16;42.40;99.90
17859;DHT22;35426;30.698;104.050;2022-08-21T02:13:51;42.70;99.90
17859;DHT22;35426;30.698;104.050;2022-08-21T02:16:25;42.90;99.90
17859;DHT22;35426;30.698;104.050;2022-08-21T02:19:01;42.80;99.90
17859;DHT22;35426;30.698;104.050;2022-08-21T02:21:35;42.90;99.90
17859;DHT22;35426;30.698;104.050;2022-08-21T02:24:26;42.70;99.90
17859;DHT22;35426;30.698;104.050;2022-08-21T02:27:00;42.50;99.90
17859;DHT22;35426;30.698;104.050;2022-08-21T02:29:39;42.40;99.90
17859;DHT22;35426;30.698;104.050;2022-08-21T02:32:36;42.80;99.90
17859;DHT22;35426;30.698;104.050;2022-08-21T02:35:12;42.50;99.90
17859;DHT22;35426;30.698;104.050;2022-08-21T02:37:48;42.30;99.90
17859;DHT22;35426;30.698;104.050;2022-08-21T02:40:26;42.70;99.90
17859;DHT22;35426;30.698;104.050;2022-08-21T02:43:22;43.30;99.90
17859;DHT22;35426;30.698;104.050;2022-08-21T02:45:57;43.30;99.90
17859;DHT22;35426;30.698;104.050;2022-08-21T02:48:32;42.80;99.90
17859;DHT22;35426;30.698;104.050;2022-08-21T02:51:26;42.60;99.90
17859;DHT22;35426;30.698;104.050;2022-08-21T02:54:00;43.10;99.90
17859;DHT22;35426;30.698;104.050;2022-08-21T02:56:36;42.60;99.90
17859;DHT22;35426;30.698;104.050;2022-08-21T02:59:10;42.00;99.90
17859;DHT22;35426;30.698;104.050;2022-08-21T03:01:56;42.20;99.90
17859;DHT22;35426;30.698;104.050;2022-08-21T03:04:30;42.10;99.90
17859;DHT22;35426;30.698;104.050;2022-08-21T03:07:05;42.40;99.90
17859;DHT22;35426;30.698;104.050;2022-08-21T03:09:39;42.40;99.90
17859;DHT22;35426;30.698;104.050;2022-08-21T03:12:26;42.10;99.90
17859;DHT22;35426;30.698;104.050;2022-08-21T03:15:03;42.40;99.90
17859;DHT22;35426;30.698;104.050;2022-08-21T03:17:37;41.90;99.90
17859;DHT22;35426;30.698;104.050;2022-08-21T03:20:13;41.70;99.90
17859;DHT22;35426;30.698;104.050;2022-08-21T03:22:47;41.60;99.90
17859;DHT22;35426;30.698;104.050;2022-08-21T03:25:22;42.30;99.90
17859;DHT22;35426;30.698;104.050;2022-08-21T03:28:12;42.20;99.90
17859;DHT22;35426;30.698;104.050;2022-08-21T03:30:47;42.20;99.90
17859;DHT22;35426;30.698;104.050;2022-08-21T03:33:32;42.30;99.90
17859;DHT22;35426;30.698;104.050;2022-08-21T03:36:26;42.10;99.90
17859;DHT22;35426;30.698;104.050;2022-08-21T03:39:00;42.30;99.90
17859;DHT22;35426;30.698;104.050;2022-08-21T03:41:35;42.30;99.90
17859;DHT22;35426;30.698;104.050;2022-08-21T03:44:27;42.40;99.90
17859;DHT22;35426;30.698;104.050;2022-08-21T03:47:02;42.10;99.90
17859;DHT22;35426;30.698;104.050;2022-08-21T03:49:38;42.40;99.90
17859;DHT22;35426;30.698;104.050;2022-08-21T03:52:12;42.00;99.90
17859;DHT22;35426;30.698;104.050;2022-08-21T03:54:47;41.80;99.90
17859;DHT22;35426;30.698;104.050;2022-08-21T03:57:33;41.60;99.90
17859;DHT22;35426;30.698;104.050;2022-08-21T04:00:12;41.80;99.90
17859;DHT22;35426;30.698;104.050;2022-08-21T04:02:46;42.10;99.90
17859;DHT22;35426;30.698;104.050;2022-08-21T04:05:21;42.20;99.90
17859;DHT22;35426;30.698;104.050;2022-08-21T04:08:01;42.40;99.90
17859;DHT22;35426;30.698;104.050;2022-08-21T04:10:52;42.40;99.90
17859;DHT22;35426;30.698;104.050;2022-08-21T04:13:27;41.80;99.90
17859;DHT22;35426;30.698;104.050;2022-08-21T04:16:03;41.50;99.90
17859;DHT22;35426;30.698;104.050;2022-08-21T04:18:36;41.20;99.90
17859;DHT22;35426;30.698;104.050;2022-08-21T04:21:11;41.50;99.90
17859;DHT22;35426;30.698;104.050;2022-08-21T04:23:45;41.50;99.90
17859;DHT22;35426;30.698;104.050;2022-08-21T04:26:19;41.90;99.90
17859;DHT22;35426;30.698;104.050;2022-08-21T04:28:52;41.90;99.90
17859;DHT22;35426;30.698;104.050;2022-08-21T04:31:29;41.70;99.90
17859;DHT22;35426;30.698;104.050;2022-08-21T04:34:03;41.50;99.90
17859;DHT22;35426;30.698;104.050;2022-08-21T04:36:37;40.80;99.90
17859;DHT22;35426;30.698;104.050;2022-08-21T04:39:14;40.70;99.90
17859;DHT22;35426;30.698;104.050;2022-08-21T04:41:48;40.50;99.90
17859;DHT22;35426;30.698;104.050;2022-08-21T04:44:22;40.20;99.90
17859;DHT22;35426;30.698;104.050;2022-08-21T04:46:57;40.20;99.90
17859;DHT22;35426;30.698;104.050;2022-08-21T04:49:31;40.00;99.90
17859;DHT22;35426;30.698;104.050;2022-08-21T04:52:05;39.90;99.90
17859;DHT22;35426;30.698;104.050;2022-08-21T04:54:39;39.90;99.90
17859;DHT22;35426;30.698;104.050;2022-08-21T04:57:22;39.80;99.90
17859;DHT22;35426;30.698;104.050;2022-08-21T05:03:08;39.70;99.90
17859;DHT22;35426;30.698;104.050;2022-08-21T05:05:43;39.60;99.90
17859;DHT22;35426;30.698;104.050;2022-08-21T05:08:21;39.40;99.90
17859;DHT22;35426;30.698;104.050;2022-08-21T05:10:56;39.40;99.90
17859;DHT22;35426;30.698;104.050;2022-08-21T05:13:31;39.40;99.90
17859;DHT22;35426;30.698;104.050;2022-08-21T05:16:05;39.40;99.90
17859;DHT22;35426;30.698;104.050;2022-08-21T05:18:42;39.30;99.90
17859;DHT22;35426;30.698;104.050;2022-08-21T05:21:26;39.30;99.90
17859;DHT22;35426;30.698;104.050;2022-08-21T05:24:01;39.40;99.90
17859;DHT22;35426;30.698;104.050;2022-08-21T05:26:36;39.50;99.90
17859;DHT22;35426;30.698;104.050;2022-08-21T05:29:15;39.60;99.90
17859;DHT22;35426;30.698;104.050;2022-08-21T05:31:49;39.90;99.90
17859;DHT22;35426;30.698;104.050;2022-08-21T05:34:26;39.60;99.90
17859;DHT22;35426;30.698;104.050;2022-08-21T05:37:01;39.60;99.90
17859;DHT22;35426;30.698;104.050;2022-08-21T05:39:36;39.90;99.90
17859;DHT22;35426;30.698;104.050;2022-08-21T05:42:33;39.80;99.90
17859;DHT22;35426;30.698;104.050;2022-08-21T05:45:08;39.70;99.90
17859;DHT22;35426;30.698;104.050;2022-08-21T05:47:42;40.00;99.90
17859;DHT22;35426;30.698;104.050;2022-08-21T05:50:19;40.00;99.90
17859;DHT22;35426;30.698;104.050;2022-08-21T05:52:58;39.80;99.90
17859;DHT22;35426;30.698;104.050;2022-08-21T05:55:37;39.60;99.90
17859;DHT22;35426;30.698;104.050;2022-08-21T05:58:16;39.90;99.90
17859;DHT22;35426;30.698;104.050;2022-08-21T06:00:51;39.90;99.90
17859;DHT22;35426;30.698;104.050;2022-08-21T06:03:27;40.00;99.90
17859;DHT22;35426;30.698;104.050;2022-08-21T06:06:04;40.00;99.90
17859;DHT22;35426;30.698;104.050;2022-08-21T06:08:38;40.00;99.90
17859;DHT22;35426;30.698;104.050;2022-08-21T06:11:13;39.80;99.90
17859;DHT22;35426;30.698;104.050;2022-08-21T06:13:49;39.90;99.90
17859;DHT22;35426;30.698;104.050;2022-08-21T06:16:23;40.20;99.90
17859;DHT22;35426;30.698;104.050;2022-08-21T06:18:58;40.30;99.90
17859;DHT22;35426;30.698;104.050;2022-08-21T06:21:39;40.40;99.90
17859;DHT22;35426;30.698;104.050;2022-08-21T06:24:14;40.50;99.90
17859;DHT22;35426;30.698;104.050;2022-08-21T06:26:49;40.60;99.90
17859;DHT22;35426;30.698;104.050;2022-08-21T06:29:25;40.50;99.90
17859;DHT22;35426;30.698;104.050;2022-08-21T06:32:14;40.20;99.90
17859;DHT22;35426;30.698;104.050;2022-08-21T06:34:49;40.20;99.90
17859;DHT22;35426;30.698;104.050;2022-08-21T06:37:25;40.20;99.90
17859;DHT22;35426;30.698;104.050;2022-08-21T06:40:04;40.30;99.90
17859;DHT22;35426;30.698;104.050;2022-08-21T06:42:40;40.30;99.90
17859;DHT22;35426;30.698;104.050;2022-08-21T06:45:17;40.30;99.90
17859;DHT22;35426;30.698;104.050;2022-08-21T06:47:51;40.50;99.90
17859;DHT22;35426;30.698;104.050;2022-08-21T06:50:28;40.70;99.90
17859;DHT22;35426;30.698;104.050;2022-08-21T06:53:07;40.90;99.90
17859;DHT22;35426;30.698;104.050;2022-08-21T06:55:41;41.00;99.90
17859;DHT22;35426;30.698;104.050;2022-08-21T06:58:17;40.80;99.90
17859;DHT22;35426;30.698;104.050;2022-08-21T07:00:52;40.70;99.90
17859;DHT22;35426;30.698;104.050;2022-08-21T07:03:33;40.50;99.90
17859;DHT22;35426;30.698;104.050;2022-08-21T07:06:08;40.50;99.90
17859;DHT22;35426;30.698;104.050;2022-08-21T07:08:45;40.60;99.90
17859;DHT22;35426;30.698;104.050;2022-08-21T07:11:21;40.50;99.90
17859;DHT22;35426;30.698;104.050;2022-08-21T07:13:56;40.70;99.90
17859;DHT22;35426;30.698;104.050;2022-08-21T07:16:29;40.70;99.90
17859;DHT22;35426;30.698;104.050;2022-08-21T07:19:04;40.70;99.90
17859;DHT22;35426;30.698;104.050;2022-08-21T07:21:39;40.60;99.90
17859;DHT22;35426;30.698;104.050;2022-08-21T07:24:15;40.30;99.90
17859;DHT22;35426;30.698;104.050;2022-08-21T07:26:52;40.20;99.90
17859;DHT22;35426;30.698;104.050;2022-08-21T07:29:26;40.20;99.90
17859;DHT22;35426;30.698;104.050;2022-08-21T07:32:06;40.20;99.90
17859;DHT22;35426;30.698;104.050;2022-08-21T07:34:40;40.20;99.90
17859;DHT22;35426;30.698;104.050;2022-08-21T07:37:24;40.50;99.90
17859;DHT22;35426;30.698;104.050;2022-08-21T07:40:00;40.60;99.90
17859;DHT22;35426;30.698;104.050;2022-08-21T07:42:34;40.70;99.90
17859;DHT22;35426;30.698;104.050;2022-08-21T07:45:13;40.70;99.90
17859;DHT22;35426;30.698;104.050;2022-08-21T07:47:46;40.70;99.80
17859;DHT22;35426;30.698;104.050;2022-08-21T07:50:26;40.60;99.10
17859;DHT22;35426;30.698;104.050;2022-08-21T07:53:13;40.50;99.30
17859;DHT22;35426;30.698;104.050;2022-08-21T07:55:49;40.80;99.60
17859;DHT22;35426;30.698;104.050;2022-08-21T07:58:24;40.90;99.40
17859;DHT22;35426;30.698;104.050;2022-08-21T08:00:58;41.00;99.00
17859;DHT22;35426;30.698;104.050;2022-08-21T08:03:32;40.80;99.60
17859;DHT22;35426;30.698;104.050;2022-08-21T08:06:07;40.70;98.20
17859;DHT22;35426;30.698;104.050;2022-08-21T08:08:43;40.70;97.60
17859;DHT22;35426;30.698;104.050;2022-08-21T08:11:21;40.70;97.70
17859;DHT22;35426;30.698;104.050;2022-08-21T08:13:56;40.70;97.10
17859;DHT22;35426;30.698;104.050;2022-08-21T08:16:30;40.60;97.30
17859;DHT22;35426;30.698;104.050;2022-08-21T08:19:04;40.60;98.10
17859;DHT22;35426;30.698;104.050;2022-08-21T08:21:38;40.50;97.80
17859;DHT22;35426;30.698;104.050;2022-08-21T08:24:14;40.60;97.90
17859;DHT22;35426;30.698;104.050;2022-08-21T08:38:48;40.80;97.80
17859;DHT22;35426;30.698;104.050;2022-08-21T08:41:22;41.00;97.50
17859;DHT22;35426;30.698;104.050;2022-08-21T08:44:01;41.00;97.20
17859;DHT22;35426;30.698;104.050;2022-08-21T08:46:40;41.00;97.30
17859;DHT22;35426;30.698;104.050;2022-08-21T08:49:17;41.00;97.10
17859;DHT22;35426;30.698;104.050;2022-08-21T08:51:57;40.90;97.70
17859;DHT22;35426;30.698;104.050;2022-08-21T08:54:39;40.80;97.60
17859;DHT22;35426;30.698;104.050;2022-08-21T08:57:17;40.90;97.10
17859;DHT22;35426;30.698;104.050;2022-08-21T08:59:53;40.90;97.00
17859;DHT22;35426;30.698;104.050;2022-08-21T09:02:46;40.70;97.20
17859;DHT22;35426;30.698;104.050;2022-08-21T09:05:24;40.70;97.30
17859;DHT22;35426;30.698;104.050;2022-08-21T09:08:28;40.50;97.50
17859;DHT22;35426;30.698;104.050;2022-08-21T09:11:13;40.40;97.60
17859;DHT22;35426;30.698;104.050;2022-08-21T09:13:54;40.50;97.60
17859;DHT22;35426;30.698;104.050;2022-08-21T09:16:35;40.50;97.80
17859;DHT22;35426;30.698;104.050;2022-08-21T09:19:21;40.60;97.80
17859;DHT22;35426;30.698;104.050;2022-08-21T09:22:06;40.80;98.10
17859;DHT22;35426;30.698;104.050;2022-08-21T09:24:49;40.60;97.40
17859;DHT22;35426;30.698;104.050;2022-08-21T09:27:31;40.80;97.40
17859;DHT22;35426;30.698;104.050;2022-08-21T09:30:06;40.70;97.10
17859;DHT22;35426;30.698;104.050;2022-08-21T09:32:41;40.60;96.90
17859;DHT22;35426;30.698;104.050;2022-08-21T09:35:17;40.60;97.80
17859;DHT22;35426;30.698;104.050;2022-08-21T09:37:53;40.70;97.30
17859;DHT22;35426;30.698;104.050;2022-08-21T09:40:33;40.80;96.90
17859;DHT22;35426;30.698;104.050;2022-08-21T09:43:19;40.80;97.10
17859;DHT22;35426;30.698;104.050;2022-08-21T09:46:07;40.80;97.00
17859;DHT22;35426;30.698;104.050;2022-08-21T09:48:44;40.70;96.90
17859;DHT22;35426;30.698;104.050;2022-08-21T09:51:24;40.70;97.50
17859;DHT22;35426;30.698;104.050;2022-08-21T09:54:13;40.50;97.00
17859;DHT22;35426;30.698;104.050;2022-08-21T09:56:56;40.40;96.90
17859;DHT22;35426;30.698;104.050;2022-08-21T10:00:17;40.40;97.00
17859;DHT22;35426;30.698;104.050;2022-08-21T10:02:52;40.30;96.50
17859;DHT22;35426;30.698;104.050;2022-08-21T10:05:27;40.50;96.80
17859;DHT22;35426;30.698;104.050;2022-08-21T10:08:02;40.40;96.70
17859;DHT22;35426;30.698;104.050;2022-08-21T10:10:38;40.20;96.30
17859;DHT22;35426;30.698;104.050;2022-08-21T10:13:14;40.30;96.30
17859;DHT22;35426;30.698;104.050;2022-08-21T10:16:00;40.20;96.50
17859;DHT22;35426;30.698;104.050;2022-08-21T10:18:41;40.10;96.70
17859;DHT22;35426;30.698;104.050;2022-08-21T10:21:20;40.10;96.60
17859;DHT22;35426;30.698;104.050;2022-08-21T10:24:05;40.10;97.00
17859;DHT22;35426;30.698;104.050;2022-08-21T10:27:10;40.20;96.80
17859;DHT22;35426;30.698;104.050;2022-08-21T10:29:53;40.20;96.90
17859;DHT22;35426;30.698;104.050;2022-08-21T10:32:52;40.10;96.50
17859;DHT22;35426;30.698;104.050;2022-08-21T10:35:33;40.10;96.70
17859;DHT22;35426;30.698;104.050;2022-08-21T10:38:41;40.20;96.40
17859;DHT22;35426;30.698;104.050;2022-08-21T10:41:46;40.20;96.80
17859;DHT22;35426;30.698;104.050;2022-08-21T10:44:28;40.10;96.50
17859;DHT22;35426;30.698;104.050;2022-08-21T10:47:06;40.00;96.40
17859;DHT22;35426;30.698;104.050;2022-08-21T10:50:06;39.90;96.60
17859;DHT22;35426;30.698;104.050;2022-08-21T10:52:56;39.90;96.90
17859;DHT22;35426;30.698;104.050;2022-08-21T10:55:36;39.60;96.90
17859;DHT22;35426;30.698;104.050;2022-08-21T10:58:12;39.60;97.00
17859;DHT22;35426;30.698;104.050;2022-08-21T11:00:49;39.50;97.10
17859;DHT22;35426;30.698;104.050;2022-08-21T11:03:29;39.40;97.20
17859;DHT22;35426;30.698;104.050;2022-08-21T11:06:11;39.40;97.40
17859;DHT22;35426;30.698;104.050;2022-08-21T11:08:46;39.40;97.70
17859;DHT22;35426;30.698;104.050;2022-08-21T11:11:26;39.20;97.90
17859;DHT22;35426;30.698;104.050;2022-08-21T11:14:09;39.20;97.90
17859;DHT22;35426;30.698;104.050;2022-08-21T11:16:46;39.10;98.10
17859;DHT22;35426;30.698;104.050;2022-08-21T11:19:25;39.10;98.30
17859;DHT22;35426;30.698;104.050;2022-08-21T11:22:15;39.10;98.40
17859;DHT22;35426;30.698;104.050;2022-08-21T11:24:59;39.00;98.40
17859;DHT22;35426;30.698;104.050;2022-08-21T11:27:38;39.00;98.40
17859;DHT22;35426;30.698;104.050;2022-08-21T11:30:13;39.00;98.80
17859;DHT22;35426;30.698;104.050;2022-08-21T11:33:01;38.90;98.60
17859;DHT22;35426;30.698;104.050;2022-08-21T11:35:42;38.90;98.90
17859;DHT22;35426;30.698;104.050;2022-08-21T11:38:26;38.80;98.70
17859;DHT22;35426;30.698;104.050;2022-08-21T11:41:16;38.70;98.70
17859;DHT22;35426;30.698;104.050;2022-08-21T11:43:55;38.70;98.60
17859;DHT22;35426;30.698;104.050;2022-08-21T11:46:39;38.70;98.50
17859;DHT22;35426;30.698;104.050;2022-08-21T11:49:52;38.60;98.50
17859;DHT22;35426;30.698;104.050;2022-08-21T11:52:33;38.50;98.80
17859;DHT22;35426;30.698;104.050;2022-08-21T11:55:15;38.50;99.00
17859;DHT22;35426;30.698;104.050;2022-08-21T11:57:55;38.40;99.20
17859;DHT22;35426;30.698;104.050;2022-08-21T12:00:34;38.40;99.30
17859;DHT22;35426;30.698;104.050;2022-08-21T12:03:13;38.30;99.30
17859;DHT22;35426;30.698;104.050;2022-08-21T12:05:54;38.30;99.70
17859;DHT22;35426;30.698;104.050;2022-08-21T12:08:33;38.20;99.90
17859;DHT22;35426;30.698;104.050;2022-08-21T12:11:21;38.30;99.90
17859;DHT22;35426;30.698;104.050;2022-08-21T12:14:11;38.20;99.90
17859;DHT22;35426;30.698;104.050;2022-08-21T12:16:47;38.10;99.90
17859;DHT22;35426;30.698;104.050;2022-08-21T12:19:30;38.10;99.90
17859;DHT22;35426;30.698;104.050;2022-08-21T12:22:13;38.10;99.90
17859;DHT22;35426;30.698;104.050;2022-08-21T12:24:50;38.00;99.90
17859;DHT22;35426;30.698;104.050;2022-08-21T12:27:29;37.90;99.90
17859;DHT22;35426;30.698;104.050;2022-08-21T12:30:06;38.00;99.90
17859;DHT22;35426;30.698;104.050;2022-08-21T12:32:46;37.90;99.90
17859;DHT22;35426;30.698;104.050;2022-08-21T12:35:31;37.90;99.90
17859;DHT22;35426;30.698;104.050;2022-08-21T12:38:09;37.90;99.90
17859;DHT22;35426;30.698;104.050;2022-08-21T12:40:52;37.90;99.90
17859;DHT22;35426;30.698;104.050;2022-08-21T12:43:33;37.90;99.90
17859;DHT22;35426;30.698;104.050;2022-08-21T12:46:16;37.80;99.90
17859;DHT22;35426;30.698;104.050;2022-08-21T12:48:54;37.80;99.90
17859;DHT22;35426;30.698;104.050;2022-08-21T12:51:34;37.80;99.90
17859;DHT22;35426;30.698;104.050;2022-08-21T12:54:20;37.80;99.90
17859;DHT22;35426;30.698;104.050;2022-08-21T12:56:59;37.80;99.90
17859;DHT22;35426;30.698;104.050;2022-08-21T12:59:38;37.80;99.90
17859;DHT22;35426;30.698;104.050;2022-08-21T13:02:17;37.70;99.90
17859;DHT22;35426;30.698;104.050;2022-08-21T13:04:51;37.60;99.90
17859;DHT22;35426;30.698;104.050;2022-08-21T13:07:29;37.60;99.90
17859;DHT22;35426;30.698;104.050;2022-08-21T13:10:07;37.60;99.90
17859;DHT22;35426;30.698;104.050;2022-08-21T13:12:49;37.50;99.90
17859;DHT22;35426;30.698;104.050;2022-08-21T13:15:28;37.40;99.90
17859;DHT22;35426;30.698;104.050;2022-08-21T13:18:04;37.30;99.90
17859;DHT22;35426;30.698;104.050;2022-08-21T13:20:40;37.30;99.90
17859;DHT22;35426;30.698;104.050;2022-08-21T13:23:21;37.20;99.90
17859;DHT22;35426;30.698;104.050;2022-08-21T13:25:57;37.20;99.90
17859;DHT22;35426;30.698;104.050;2022-08-21T13:28:41;37.20;99.90
17859;DHT22;35426;30.698;104.050;2022-08-21T13:31:29;37.20;99.90
17859;DHT22;35426;30.698;104.050;2022-08-21T13:34:04;37.20;99.90
17859;DHT22;35426;30.698;104.050;2022-08-21T13:36:42;37.20;99.90
17859;DHT22;35426;30.698;104.050;2022-08-21T13:39:20;37.10;99.90
17859;DHT22;35426;30.698;104.050;2022-08-21T13:42:12;37.00;99.90
17859;DHT22;35426;30.698;104.050;2022-08-21T13:44:53;37.00;99.90
17859;DHT22;35426;30.698;104.050;2022-08-21T13:47:30;37.00;99.90
17859;DHT22;35426;30.698;104.050;2022-08-21T13:50:05;37.10;99.90
17859;DHT22;35426;30.698;104.050;2022-08-21T13:53:01;36.90;99.90
17859;DHT22;35426;30.698;104.050;2022-08-21T13:55:42;36.80;99.90
17859;DHT22;35426;30.698;104.050;2022-08-21T13:58:26;36.80;99.90
17859;DHT22;35426;30.698;104.050;2022-08-21T14:01:01;36.70;99.90
17859;DHT22;35426;30.698;104.050;2022-08-21T14:03:41;36.70;99.90
17859;DHT22;35426;30.698;104.050;2022-08-21T14:06:19;36.60;99.90
17859;DHT22;35426;30.698;104.050;2022-08-21T14:08:56;36.60;99.90
17859;DHT22;35426;30.698;104.050;2022-08-21T14:11:45;36.50;99.90
17859;DHT22;35426;30.698;104.050;2022-08-21T14:14:33;36.50;99.90
17859;DHT22;35426;30.698;104.050;2022-08-21T14:17:29;36.30;99.90
17859;DHT22;35426;30.698;104.050;2022-08-21T14:20:33;36.30;99.90
17859;DHT22;35426;30.698;104.050;2022-08-21T14:23:08;36.30;99.90
17859;DHT22;35426;30.698;104.050;2022-08-21T14:25:53;36.30;99.90
17859;DHT22;35426;30.698;104.050;2022-08-21T14:29:00;36.30;99.90
17859;DHT22;35426;30.698;104.050;2022-08-21T14:31:39;36.20;99.90
17859;DHT22;35426;30.698;104.050;2022-08-21T14:34:14;36.30;99.90
17859;DHT22;35426;30.698;104.050;2022-08-21T14:36:51;36.40;99.90
17859;DHT22;35426;30.698;104.050;2022-08-21T14:39:33;36.60;99.90
17859;DHT22;35426;30.698;104.050;2022-08-21T14:42:13;36.50;99.90
17859;DHT22;35426;30.698;104.050;2022-08-21T14:44:48;36.60;99.90
17859;DHT22;35426;30.698;104.050;2022-08-21T14:47:22;36.50;99.90
17859;DHT22;35426;30.698;104.050;2022-08-21T14:49:59;36.40;99.90
17859;DHT22;35426;30.698;104.050;2022-08-21T14:52:36;36.40;99.90
17859;DHT22;35426;30.698;104.050;2022-08-21T14:55:14;36.50;99.90
17859;DHT22;35426;30.698;104.050;2022-08-21T14:57:50;36.50;99.90
17859;DHT22;35426;30.698;104.050;2022-08-21T15:00:26;36.40;99.90
17859;DHT22;35426;30.698;104.050;2022-08-21T15:03:05;36.50;99.90
17859;DHT22;35426;30.698;104.050;2022-08-21T15:05:39;36.70;99.90
17859;DHT22;35426;30.698;104.050;2022-08-21T15:08:21;36.80;99.90
17859;DHT22;35426;30.698;104.050;2022-08-21T15:10:56;36.70;99.90
17859;DHT22;35426;30.698;104.050;2022-08-21T15:13:58;36.80;99.90
17859;DHT22;35426;30.698;104.050;2022-08-21T15:16:39;36.70;99.90
17859;DHT22;35426;30.698;104.050;2022-08-21T15:19:18;36.70;99.90
17859;DHT22;35426;30.698;104.050;2022-08-21T15:21:57;36.70;99.90
17859;DHT22;35426;30.698;104.050;2022-08-21T15:24:37;36.70;99.90
17859;DHT22;35426;30.698;104.050;2022-08-21T15:27:12;36.70;99.90
17859;DHT22;35426;30.698;104.050;2022-08-21T15:29:50;36.70;99.90
17859;DHT22;35426;30.698;104.050;2022-08-21T15:32:26;36.60;99.90
17859;DHT22;35426;30.698;104.050;2022-08-21T15:35:01;36.60;99.90
17859;DHT22;35426;30.698;104.050;2022-08-21T15:37:36;36.60;99.90
17859;DHT22;35426;30.698;104.050;2022-08-21T15:40:14;36.60;99.90
17859;DHT22;35426;30.698;104.050;2022-08-21T15:42:49;36.60;99.90
17859;DHT22;35426;30.698;104.050;2022-08-21T15:45:25;36.60;99.90
17859;DHT22;35426;30.698;104.050;2022-08-21T15:47:59;36.60;99.90
17859;DHT22;35426;30.698;104.050;2022-08-21T15:50:34;36.60;99.90
17859;DHT22;35426;30.698;104.050;2022-08-21T15:53:09;36.50;99.90
17859;DHT22;35426;30.698;104.050;2022-08-21T15:55:48;36.60;99.90
17859;DHT22;35426;30.698;104.050;2022-08-21T15:58:24;36.60;99.90
17859;DHT22;35426;30.698;104.050;2022-08-21T16:01:00;36.50;99.90
17859;DHT22;35426;30.698;104.050;2022-08-21T16:03:35;36.60;99.90
17859;DHT22;35426;30.698;104.050;2022-08-21T16:06:11;36.50;99.90
17859;DHT22;35426;30.698;104.050;2022-08-21T16:08:46;36.50;99.90
17859;DHT22;35426;30.698;104.050;2022-08-21T16:11:22;36.50;99.90
17859;DHT22;35426;30.698;104.050;2022-08-21T16:13:57;36.50;99.90
17859;DHT22;35426;30.698;104.050;2022-08-21T16:16:36;36.50;99.90
17859;DHT22;35426;30.698;104.050;2022-08-21T16:19:11;36.50;99.90
17859;DHT22;35426;30.698;104.050;2022-08-21T16:21:47;36.50;99.90
17859;DHT22;35426;30.698;104.050;2022-08-21T16:24:23;36.50;99.90
17859;DHT22;35426;30.698;104.050;2022-08-21T16:27:06;36.50;99.90
17859;DHT22;35426;30.698;104.050;2022-08-21T16:29:57;36.40;99.90